Date/Time EDT BROAD KEY-Water Temp BROAD KEY-Linear Conductivity BROAD KEY-Non Linear Conductivity BROAD KEY-Water Level BROAD KEY-Salinity BROAD KEY-TDS BROAD KEY-Air Temp BROAD KEY-Water Temp in F BROAD KEY-Air Temp in F
27-May-2017 06:45 29.10 2,687.67 2,685.42 3.64 1.36 1,271.42 26.72 84.38 80.10
27-May-2017 06:40 29.11 2,686.18 2,683.92 3.64 1.36 1,270.84 26.55 84.40 79.79
27-May-2017 06:35 29.11 2,686.63 2,684.37 3.63 1.36 1,270.31 26.41 84.40 79.54
27-May-2017 06:30 29.12 2,683.42 2,681.15 3.59 1.36 1,268.48 26.26 84.42 79.27
27-May-2017 06:10 29.13 2,677.83 2,675.54 3.50 1.35 1,265.65 26.17 84.43 79.11
27-May-2017 06:05 29.13 2,677.72 2,675.44 3.49 1.35 1,266.27 26.09 84.43 78.96
25-May-2017 16:25 29.31 2,672.19 2,669.66 2.77 1.35 1,260.80 30.40 84.76 86.72
25-May-2017 05:50 28.04 2,702.22 2,701.29 3.72 1.36 1,275.00 25.24 82.47 77.43
25-May-2017 02:15 28.35 2,692.86 2,691.58 3.18 1.36 1,268.14 25.80 83.03 78.44
25-May-2017 01:45 28.40 2,696.25 2,694.90 3.37 1.36 1,267.88 25.34 83.12 77.61
24-May-2017 19:10 30.25 2,694.23 2,690.20 4.20 1.36 1,276.45 26.37 86.45 79.47
24-May-2017 03:25 28.37 2,685.72 2,684.42 3.39 1.35 1,256.77 27.32 83.07 81.18
24-May-2017 03:00 28.38 2,686.62 2,685.30 3.32 1.35 1,258.07 27.30 83.08 81.14
24-May-2017 01:45 28.52 2,701.12 2,699.63 3.33 1.36 1,266.56 27.47 83.34 81.45
24-May-2017 01:30 28.55 2,705.59 2,704.06 3.35 1.36 1,267.03 27.40 83.39 81.32
21-May-2017 07:00 27.72 2,730.36 2,729.77 4.24 1.37 1,273.19 26.56 81.90 79.81
21-May-2017 05:10 27.99 2,730.98 2,730.10 4.16 1.37 1,275.40 26.52 82.38 79.74
21-May-2017 03:35 27.65 2,722.06 2,721.54 3.92 1.36 1,269.69 26.65 81.77 79.97
21-May-2017 03:10 27.58 2,716.33 2,715.88 3.83 1.36 1,262.90 26.74 81.64 80.13
21-May-2017 02:50 27.52 2,720.97 2,720.58 3.76 1.36 1,267.60 26.84 81.54 80.31
21-May-2017 02:30 27.59 2,729.81 2,729.35 3.68 1.37 1,273.67 26.90 81.66 80.42
21-May-2017 01:40 28.67 2,737.37 2,735.67 3.56 1.37 1,279.49 27.06 83.61 80.71
21-May-2017 00:20 28.20 2,733.99 2,732.87 3.31 1.37 1,277.59 27.54 82.76 81.57
20-May-2017 23:50 28.26 2,740.57 2,739.38 3.28 1.37 1,279.66 27.62 82.87 81.72
20-May-2017 21:25 28.77 2,759.56 2,757.71 3.65 1.39 1,293.49 27.32 83.79 81.18
20-May-2017 17:40 29.27 2,765.75 2,763.19 4.24 1.39 1,300.93 28.42 84.69 83.16
20-May-2017 06:15 27.45 2,765.54 2,765.21 4.33 1.38 1,285.29 26.87 81.41 80.37
20-May-2017 05:25 27.52 2,768.35 2,767.95 4.36 1.38 1,286.33 26.95 81.54 80.51
20-May-2017 03:25 28.02 2,782.57 2,781.64 4.12 1.40 1,300.07 26.94 82.44 80.49
20-May-2017 03:20 28.04 2,784.89 2,783.94 4.10 1.39 1,299.10 27.06 82.47 80.71
20-May-2017 02:05 27.81 2,777.81 2,777.11 3.82 1.39 1,295.17 27.08 82.06 80.74
19-May-2017 03:55 27.75 2,795.22 2,794.59 4.30 1.40 1,298.07 27.14 81.95 80.85
19-May-2017 03:20 27.80 2,800.53 2,799.84 4.26 1.40 1,299.80 27.16 82.04 80.89
18-May-2017 06:40 27.23 2,813.74 2,813.62 3.95 1.40 1,296.20 26.93 81.01 80.47
18-May-2017 03:45 27.61 2,847.31 2,846.81 4.41 1.42 1,315.26 26.63 81.70 79.93
18-May-2017 02:30 27.88 2,847.14 2,846.35 4.38 1.42 1,318.24 26.73 82.18 80.11
15-May-2017 07:30 26.96 3,092.18 3,092.30 3.35 1.54 1,415.51 24.37 80.53 75.87
14-May-2017 18:30 28.27 3,164.38 3,162.99 3.06 1.58 1,450.19 28.47 82.89 83.25
14-May-2017 15:50 28.27 3,172.57 3,171.17 3.57 1.58 1,452.97 30.24 82.89 86.43
14-May-2017 15:40 28.23 3,165.85 3,164.51 3.61 1.58 1,449.97 30.45 82.81 86.81
14-May-2017 13:50 28.01 3,183.93 3,182.87 4.14 1.58 1,452.79 29.04 82.42 84.27
14-May-2017 12:50 27.99 3,159.75 3,158.73 4.19 1.57 1,446.61 29.18 82.38 84.52
14-May-2017 12:30 27.98 3,162.87 3,161.87 4.17 1.57 1,447.17 29.59 82.36 85.26
14-May-2017 07:25 27.44 3,268.01 3,267.64 3.26 1.63 1,499.39 26.86 81.39 80.35
14-May-2017 06:50 27.42 3,291.66 3,291.31 3.24 1.65 1,511.73 26.18 81.36 79.12
14-May-2017 06:15 27.47 3,286.12 3,285.71 3.23 1.65 1,515.15 26.15 81.45 79.07
14-May-2017 03:45 27.87 3,179.34 3,178.46 3.66 1.58 1,456.62 26.26 82.17 79.27
14-May-2017 02:20 27.99 3,165.54 3,164.52 4.05 1.58 1,447.48 25.90 82.38 78.62
14-May-2017 02:15 28.01 3,166.35 3,165.30 4.09 1.58 1,447.79 25.93 82.42 78.67
14-May-2017 00:15 28.45 3,177.35 3,175.69 4.14 1.59 1,462.96 26.29 83.21 79.32
13-May-2017 23:50 28.52 3,160.08 3,158.34 4.09 1.58 1,453.63 26.08 83.34 78.94
13-May-2017 23:20 28.53 3,157.20 3,155.44 4.05 1.58 1,450.55 25.77 83.35 78.39
13-May-2017 23:05 28.57 3,161.56 3,159.73 4.01 1.58 1,451.54 25.79 83.43 78.42
13-May-2017 21:40 28.90 3,143.66 3,141.35 3.75 1.57 1,446.33 26.69 84.02 80.04
13-May-2017 21:25 28.82 3,140.76 3,138.57 3.66 1.57 1,443.67 26.68 83.88 80.02
13-May-2017 18:55 29.09 3,141.66 3,139.06 3.03 1.57 1,445.30 29.56 84.36 85.21
13-May-2017 18:20 29.25 3,133.95 3,131.08 3.01 1.57 1,446.76 29.95 84.65 85.91
13-May-2017 18:15 29.30 3,143.93 3,140.97 3.01 1.58 1,452.88 30.07 84.74 86.13
13-May-2017 18:10 29.32 3,138.04 3,135.05 3.00 1.57 1,446.31 30.23 84.78 86.41
13-May-2017 15:25 29.00 3,179.62 3,177.11 3.44 1.59 1,468.41 30.89 84.20 87.60
13-May-2017 15:20 28.96 3,207.55 3,205.10 3.47 1.61 1,481.69 30.63 84.13 87.13
13-May-2017 09:40 27.11 3,162.50 3,162.48 3.93 1.58 1,453.17 28.90 80.80 84.02
13-May-2017 07:15 27.68 3,257.71 3,257.05 3.43 1.64 1,506.97 26.05 81.82 78.89
13-May-2017 05:10 27.78 3,305.76 3,304.96 3.28 1.67 1,542.57 25.45 82.00 77.81
13-May-2017 04:25 27.94 3,349.23 3,348.22 3.39 1.70 1,570.97 25.57 82.29 78.03
12-May-2017 03:30 27.92 3,790.36 3,789.24 3.27 1.99 1,843.14 24.24 82.26 75.63
11-May-2017 23:15 28.65 3,767.10 3,764.79 3.99 1.98 1,831.87 23.96 83.57 75.13
11-May-2017 02:45 27.64 3,890.86 3,890.13 3.39 2.05 1,899.71 23.69 81.75 74.64
11-May-2017 02:05 27.67 3,897.71 3,896.94 3.50 2.06 1,904.72 24.14 81.81 75.45
11-May-2017 01:50 27.67 3,886.49 3,885.72 3.58 2.05 1,898.08 24.16 81.81 75.49
11-May-2017 01:35 27.68 3,863.61 3,862.83 3.66 2.04 1,886.08 24.04 81.82 75.27
10-May-2017 04:00 26.97 3,658.41 3,658.55 3.04 1.91 1,766.66 24.40 80.55 75.92
10-May-2017 03:15 27.01 3,360.61 3,360.70 3.10 1.72 1,589.47 24.48 80.62 76.06
09-May-2017 08:20 25.78 3,508.51 3,509.60 4.00 1.81 1,679.79 24.70 78.40 76.46
09-May-2017 08:15 25.74 3,493.82 3,494.92 3.98 1.80 1,670.79 24.75 78.33 76.55
09-May-2017 07:35 25.73 3,736.01 3,737.20 3.85 1.96 1,815.25 24.58 78.31 76.24
09-May-2017 06:40 25.77 3,532.24 3,533.35 3.72 1.83 1,694.94 23.74 78.39 74.73
09-May-2017 06:35 25.78 3,465.72 3,466.80 3.69 1.78 1,654.03 23.76 78.40 74.77
09-May-2017 06:30 25.80 3,423.14 3,424.19 3.67 1.76 1,628.52 23.72 78.44 74.70
09-May-2017 06:25 25.83 3,370.33 3,371.35 3.64 1.72 1,593.38 23.71 78.49 74.68
09-May-2017 06:20 25.87 3,292.23 3,293.21 3.63 1.67 1,543.02 23.67 78.57 74.61
09-May-2017 06:15 25.92 3,272.45 3,273.39 3.62 1.66 1,534.53 23.63 78.66 74.53
09-May-2017 06:10 26.00 3,287.20 3,288.10 3.61 1.67 1,542.23 23.49 78.80 74.28
09-May-2017 06:05 26.07 3,322.56 3,323.42 3.58 1.69 1,565.47 23.59 78.93 74.46
09-May-2017 05:35 26.19 3,609.01 3,609.86 3.47 1.88 1,742.15 23.65 79.14 74.57
09-May-2017 04:55 26.24 3,517.44 3,518.23 3.31 1.82 1,686.73 23.59 79.23 74.46
09-May-2017 04:25 26.18 3,465.24 3,466.07 3.21 1.79 1,655.08 22.50 79.12 72.50
08-May-2017 06:25 24.84 3,612.50 3,613.96 3.66 1.88 1,740.20 19.98 76.71 67.96
08-May-2017 06:20 24.85 3,605.97 3,607.43 3.65 1.87 1,736.96 19.99 76.73 67.98
08-May-2017 06:15 24.86 3,574.46 3,575.90 3.64 1.85 1,722.03 19.94 76.75 67.89
08-May-2017 06:10 24.87 3,556.96 3,558.40 3.62 1.84 1,709.29 20.03 76.77 68.05
08-May-2017 06:00 24.90 3,540.73 3,542.15 3.60 1.83 1,701.36 20.23 76.82 68.41
08-May-2017 05:50 25.02 3,472.81 3,474.18 3.52 1.79 1,661.21 20.60 77.04 69.08
08-May-2017 05:35 25.20 3,340.36 3,341.64 3.47 1.70 1,577.54 20.15 77.36 68.27
08-May-2017 05:10 25.35 3,344.65 3,345.88 3.38 1.71 1,582.69 19.69 77.63 67.44
08-May-2017 04:50 25.43 3,350.53 3,351.73 3.32 1.72 1,590.62 19.97 77.77 67.95
08-May-2017 04:40 25.31 3,382.49 3,383.75 3.23 1.73 1,608.70 20.27 77.56 68.49
08-May-2017 04:25 25.35 3,391.22 3,392.46 3.17 1.74 1,615.26 20.79 77.63 69.42
08-May-2017 04:15 25.35 3,405.25 3,406.50 3.15 1.75 1,622.60 20.57 77.63 69.03
08-May-2017 04:00 25.37 3,392.19 3,393.43 3.09 1.74 1,614.29 20.65 77.67 69.17
08-May-2017 03:50 25.38 3,346.28 3,347.50 3.05 1.71 1,585.08 20.59 77.68 69.06
08-May-2017 03:45 25.39 3,341.28 3,342.49 3.05 1.71 1,582.10 20.39 77.70 68.70
08-May-2017 03:40 25.40 3,328.73 3,329.94 3.05 1.70 1,572.65 20.30 77.72 68.54
08-May-2017 03:35 25.41 3,289.98 3,291.17 3.03 1.68 1,550.85 20.38 77.74 68.68
08-May-2017 03:30 25.42 3,277.73 3,278.91 3.03 1.67 1,541.74 20.15 77.76 68.27
08-May-2017 03:25 25.45 3,267.62 3,268.78 3.01 1.66 1,535.86 20.20 77.81 68.36
08-May-2017 03:20 25.47 3,264.97 3,266.12 3.00 1.66 1,535.16 20.32 77.85 68.58
08-May-2017 03:15 25.48 3,256.41 3,257.56 2.99 1.65 1,528.02 20.39 77.86 68.70
08-May-2017 03:10 25.49 3,237.23 3,238.37 2.98 1.64 1,518.06 20.45 77.88 68.81
08-May-2017 03:05 25.50 3,234.41 3,235.54 2.98 1.64 1,514.46 20.46 77.90 68.83
08-May-2017 02:35 25.56 3,261.38 3,262.50 2.98 1.66 1,533.55 20.88 78.01 69.58
07-May-2017 02:30 24.91 3,531.15 3,532.57 3.07 1.83 1,698.27 21.35 76.84 70.43
06-May-2017 19:15 26.63 3,428.51 3,428.96 4.17 1.77 1,643.31 25.66 79.93 78.19
06-May-2017 17:45 27.31 3,554.93 3,554.68 3.89 1.85 1,718.06 26.53 81.16 79.75
06-May-2017 05:05 25.43 3,949.75 3,951.16 3.82 2.08 1,933.19 22.01 77.77 71.62
06-May-2017 04:25 25.37 3,949.49 3,950.94 3.68 2.09 1,934.24 22.16 77.67 71.89
06-May-2017 04:20 25.42 3,947.54 3,948.96 3.67 2.09 1,933.61 22.18 77.76 71.92
06-May-2017 04:15 25.48 3,946.40 3,947.79 3.67 2.08 1,931.71 22.09 77.86 71.76
06-May-2017 03:40 26.12 3,922.25 3,923.23 3.52 2.07 1,920.88 21.79 79.02 71.22
06-May-2017 03:35 26.12 3,919.86 3,920.84 3.50 2.07 1,920.39 21.63 79.02 70.93
06-May-2017 03:05 26.18 3,916.17 3,917.10 3.42 2.07 1,917.75 21.69 79.12 71.04
06-May-2017 02:25 26.16 3,912.98 3,913.92 3.23 2.07 1,918.21 22.10 79.09 71.78
06-May-2017 02:15 26.16 3,910.23 3,911.17 3.20 2.07 1,917.69 22.02 79.09 71.64
05-May-2017 05:20 27.97 3,728.70 3,727.52 4.15 1.97 1,829.44 26.52 82.35 79.74
05-May-2017 04:20 27.80 3,687.74 3,686.84 4.04 1.94 1,807.46 26.30 82.04 79.34
05-May-2017 03:45 28.15 3,699.81 3,698.37 3.93 1.95 1,813.69 26.21 82.67 79.18
05-May-2017 03:25 28.03 3,698.95 3,697.70 3.86 1.95 1,812.17 26.16 82.45 79.09
05-May-2017 03:15 28.05 3,696.75 3,695.47 3.83 1.95 1,811.72 26.22 82.49 79.20
05-May-2017 02:55 28.06 3,695.19 3,693.89 3.75 1.95 1,808.93 26.15 82.51 79.07
05-May-2017 02:50 28.06 3,689.79 3,688.48 3.74 1.94 1,808.93 26.17 82.51 79.11
05-May-2017 02:35 28.15 3,686.44 3,685.00 3.70 1.94 1,805.73 26.03 82.67 78.85
04-May-2017 23:40 28.93 3,612.61 3,609.91 3.27 1.90 1,770.33 25.93 84.07 78.67
04-May-2017 23:35 28.93 3,611.99 3,609.27 3.27 1.90 1,770.32 25.94 84.07 78.69
02-May-2017 22:25 27.75 2,789.21 2,788.57 3.24 1.41 1,320.94 23.61 81.95 74.50
02-May-2017 22:20 27.75 2,788.12 2,787.49 3.27 1.41 1,318.36 23.38 81.95 74.08
02-May-2017 22:10 27.79 2,786.75 2,786.07 3.32 1.41 1,319.07 23.50 82.02 74.30
02-May-2017 22:00 27.84 2,793.84 2,793.10 3.39 1.41 1,320.83 23.37 82.11 74.07
02-May-2017 21:55 27.88 2,786.68 2,785.90 3.37 1.41 1,317.80 23.44 82.18 74.19
02-May-2017 01:20 27.18 2,737.73 2,737.65 4.11 1.38 1,286.81 26.48 80.92 79.66
02-May-2017 00:20 27.12 2,719.04 2,719.02 3.90 1.37 1,275.95 26.45 80.82 79.61
01-May-2017 03:20 26.81 2,699.80 2,700.03 4.48 1.35 1,256.85 25.96 80.26 78.73
01-May-2017 03:15 26.82 2,678.10 2,678.32 4.50 1.34 1,247.66 25.90 80.28 78.62
01-May-2017 02:55 26.85 2,695.07 2,695.26 4.51 1.35 1,257.59 26.01 80.33 78.82
01-May-2017 00:35 27.13 2,684.74 2,684.71 4.34 1.35 1,257.27 26.25 80.83 79.25